sensor_id;sensor_type;location;lat;lon;timestamp;temperature;humidity
8172;DHT22;4127;47.908;10.850;2023-01-16T00:02:23;0.60;99.90
8172;DHT22;4127;47.908;10.850;2023-01-16T00:04:50;0.60;99.90
8172;DHT22;4127;47.908;10.850;2023-01-16T00:07:17;0.60;99.90
8172;DHT22;4127;47.908;10.850;2023-01-16T00:09:44;0.70;99.90
8172;DHT22;4127;47.908;10.850;2023-01-16T00:12:10;0.70;99.90
8172;DHT22;4127;47.908;10.850;2023-01-16T00:14:37;0.50;99.90
8172;DHT22;4127;47.908;10.850;2023-01-16T00:17:04;0.40;99.90
8172;DHT22;4127;47.908;10.850;2023-01-16T00:19:33;0.30;99.90
8172;DHT22;4127;47.908;10.850;2023-01-16T00:22:00;0.20;99.90
8172;DHT22;4127;47.908;10.850;2023-01-16T00:24:27;0.10;99.90
8172;DHT22;4127;47.908;10.850;2023-01-16T00:26:54;0.00;99.90
8172;DHT22;4127;47.908;10.850;2023-01-16T00:29:20;-0.10;99.90
8172;DHT22;4127;47.908;10.850;2023-01-16T00:31:47;-0.10;99.90
8172;DHT22;4127;47.908;10.850;2023-01-16T00:34:14;-0.10;99.90
8172;DHT22;4127;47.908;10.850;2023-01-16T00:36:41;0.00;99.90
8172;DHT22;4127;47.908;10.850;2023-01-16T00:39:08;-0.10;99.90
8172;DHT22;4127;47.908;10.850;2023-01-16T00:41:34;-0.20;99.90
8172;DHT22;4127;47.908;10.850;2023-01-16T00:44:01;-0.10;99.90
8172;DHT22;4127;47.908;10.850;2023-01-16T00:46:28;-0.10;99.90
8172;DHT22;4127;47.908;10.850;2023-01-16T00:48:59;-0.10;99.90
8172;DHT22;4127;47.908;10.850;2023-01-16T00:51:26;-0.10;99.90
8172;DHT22;4127;47.908;10.850;2023-01-16T00:53:55;-0.20;99.90
8172;DHT22;4127;47.908;10.850;2023-01-16T00:56:22;-0.20;99.90
8172;DHT22;4127;47.908;10.850;2023-01-16T00:58:49;-0.30;99.90
8172;DHT22;4127;47.908;10.850;2023-01-16T01:01:16;-0.20;99.90
8172;DHT22;4127;47.908;10.850;2023-01-16T01:03:43;-0.30;99.90
8172;DHT22;4127;47.908;10.850;2023-01-16T01:06:10;-0.20;99.90
8172;DHT22;4127;47.908;10.850;2023-01-16T01:08:55;-0.20;99.90
8172;DHT22;4127;47.908;10.850;2023-01-16T01:11:28;-0.10;99.90
8172;DHT22;4127;47.908;10.850;2023-01-16T01:13:54;-0.10;99.90
8172;DHT22;4127;47.908;10.850;2023-01-16T01:16:21;0.10;99.90
8172;DHT22;4127;47.908;10.850;2023-01-16T01:18:48;0.00;99.90
8172;DHT22;4127;47.908;10.850;2023-01-16T01:21:16;0.00;99.90
8172;DHT22;4127;47.908;10.850;2023-01-16T01:23:43;0.00;99.90
8172;DHT22;4127;47.908;10.850;2023-01-16T01:26:13;-0.10;99.90
8172;DHT22;4127;47.908;10.850;2023-01-16T01:28:42;-0.20;99.90
8172;DHT22;4127;47.908;10.850;2023-01-16T01:31:10;-0.30;99.90
8172;DHT22;4127;47.908;10.850;2023-01-16T01:33:41;-0.20;99.90
8172;DHT22;4127;47.908;10.850;2023-01-16T01:36:11;-0.10;99.90
8172;DHT22;4127;47.908;10.850;2023-01-16T01:38:38;-0.10;99.90
8172;DHT22;4127;47.908;10.850;2023-01-16T01:41:05;-0.10;99.90
8172;DHT22;4127;47.908;10.850;2023-01-16T01:43:49;-0.20;99.90
8172;DHT22;4127;47.908;10.850;2023-01-16T01:46:43;-0.30;99.90
8172;DHT22;4127;47.908;10.850;2023-01-16T01:49:29;-0.40;99.90
8172;DHT22;4127;47.908;10.850;2023-01-16T01:51:59;-0.30;99.90
8172;DHT22;4127;47.908;10.850;2023-01-16T01:54:35;-0.30;99.90
8172;DHT22;4127;47.908;10.850;2023-01-16T01:57:08;-0.30;99.90
8172;DHT22;4127;47.908;10.850;2023-01-16T01:59:49;-0.20;99.90
8172;DHT22;4127;47.908;10.850;2023-01-16T02:02:29;-0.20;99.90
8172;DHT22;4127;47.908;10.850;2023-01-16T02:04:57;-0.20;99.90
8172;DHT22;4127;47.908;10.850;2023-01-16T02:07:26;-0.20;99.90
8172;DHT22;4127;47.908;10.850;2023-01-16T02:10:00;-0.30;99.90
8172;DHT22;4127;47.908;10.850;2023-01-16T02:12:37;-0.30;99.90
8172;DHT22;4127;47.908;10.850;2023-01-16T02:15:12;-0.30;99.90
8172;DHT22;4127;47.908;10.850;2023-01-16T02:17:48;-0.30;99.90
8172;DHT22;4127;47.908;10.850;2023-01-16T02:26:54;-0.10;99.90
8172;DHT22;4127;47.908;10.850;2023-01-16T02:29:40;-0.10;99.90
8172;DHT22;4127;47.908;10.850;2023-01-16T02:35:15;-0.20;99.90
8172;DHT22;4127;47.908;10.850;2023-01-16T02:37:48;-0.20;99.90
8172;DHT22;4127;47.908;10.850;2023-01-16T02:40:31;-0.20;99.90
8172;DHT22;4127;47.908;10.850;2023-01-16T02:46:24;-0.30;99.90
8172;DHT22;4127;47.908;10.850;2023-01-16T02:58:24;-0.40;99.90
8172;DHT22;4127;47.908;10.850;2023-01-16T03:01:05;-0.40;99.90
8172;DHT22;4127;47.908;10.850;2023-01-16T03:03:50;-0.40;99.90
8172;DHT22;4127;47.908;10.850;2023-01-16T03:26:02;-0.50;99.90
8172;DHT22;4127;47.908;10.850;2023-01-16T03:32:36;-0.60;99.90
8172;DHT22;4127;47.908;10.850;2023-01-16T03:35:39;-0.70;99.90
8172;DHT22;4127;47.908;10.850;2023-01-16T03:38:20;-0.70;99.90
8172;DHT22;4127;47.908;10.850;2023-01-16T03:41:11;-0.80;99.90
8172;DHT22;4127;47.908;10.850;2023-01-16T03:44:43;-0.80;99.90
8172;DHT22;4127;47.908;10.850;2023-01-16T03:48:04;-0.80;99.90
8172;DHT22;4127;47.908;10.850;2023-01-16T03:50:29;-0.80;99.90
8172;DHT22;4127;47.908;10.850;2023-01-16T03:53:06;-0.80;99.90
8172;DHT22;4127;47.908;10.850;2023-01-16T03:55:57;-0.80;99.90
8172;DHT22;4127;47.908;10.850;2023-01-16T03:59:35;-0.80;99.90
8172;DHT22;4127;47.908;10.850;2023-01-16T04:02:18;-0.80;99.90
8172;DHT22;4127;47.908;10.850;2023-01-16T04:05:27;-0.80;99.90
8172;DHT22;4127;47.908;10.850;2023-01-16T04:08:08;-0.80;99.90
8172;DHT22;4127;47.908;10.850;2023-01-16T04:10:52;-0.80;99.90
8172;DHT22;4127;47.908;10.850;2023-01-16T04:13:36;-0.80;99.90
8172;DHT22;4127;47.908;10.850;2023-01-16T04:16:09;-0.70;99.90
8172;DHT22;4127;47.908;10.850;2023-01-16T04:18:52;-0.70;99.90
8172;DHT22;4127;47.908;10.850;2023-01-16T04:21:34;-0.80;99.90
8172;DHT22;4127;47.908;10.850;2023-01-16T04:24:08;-0.80;99.90
8172;DHT22;4127;47.908;10.850;2023-01-16T04:26:43;-0.90;99.90
8172;DHT22;4127;47.908;10.850;2023-01-16T04:29:17;-1.10;99.90
8172;DHT22;4127;47.908;10.850;2023-01-16T04:31:56;-1.10;99.90
8172;DHT22;4127;47.908;10.850;2023-01-16T04:34:38;-1.10;99.90
8172;DHT22;4127;47.908;10.850;2023-01-16T04:37:18;-1.10;99.90
8172;DHT22;4127;47.908;10.850;2023-01-16T04:39:59;-1.00;99.90
8172;DHT22;4127;47.908;10.850;2023-01-16T04:42:38;-1.00;99.90
8172;DHT22;4127;47.908;10.850;2023-01-16T04:45:30;-1.00;99.90
8172;DHT22;4127;47.908;10.850;2023-01-16T04:48:16;-1.00;99.90
8172;DHT22;4127;47.908;10.850;2023-01-16T04:50:55;-1.10;99.90
8172;DHT22;4127;47.908;10.850;2023-01-16T04:53:34;-1.10;99.90
8172;DHT22;4127;47.908;10.850;2023-01-16T04:56:13;-1.10;99.90
8172;DHT22;4127;47.908;10.850;2023-01-16T04:59:17;-1.10;99.90
8172;DHT22;4127;47.908;10.850;2023-01-16T05:01:56;-1.20;99.90
8172;DHT22;4127;47.908;10.850;2023-01-16T05:04:30;-1.30;99.90
8172;DHT22;4127;47.908;10.850;2023-01-16T05:07:43;-1.30;99.90
8172;DHT22;4127;47.908;10.850;2023-01-16T05:10:52;-1.30;99.90
8172;DHT22;4127;47.908;10.850;2023-01-16T05:13:31;-1.30;99.90
8172;DHT22;4127;47.908;10.850;2023-01-16T05:19:33;-1.30;99.90
8172;DHT22;4127;47.908;10.850;2023-01-16T05:22:23;-1.30;99.90
8172;DHT22;4127;47.908;10.850;2023-01-16T05:25:02;-1.40;99.90
8172;DHT22;4127;47.908;10.850;2023-01-16T05:27:58;-1.30;99.90
8172;DHT22;4127;47.908;10.850;2023-01-16T05:30:33;-1.30;99.90
8172;DHT22;4127;47.908;10.850;2023-01-16T05:33:00;-1.30;99.90
8172;DHT22;4127;47.908;10.850;2023-01-16T05:35:31;-1.30;99.90
8172;DHT22;4127;47.908;10.850;2023-01-16T05:37:58;-1.40;99.90
8172;DHT22;4127;47.908;10.850;2023-01-16T05:40:25;-1.40;99.90
8172;DHT22;4127;47.908;10.850;2023-01-16T05:42:58;-1.60;99.90
8172;DHT22;4127;47.908;10.850;2023-01-16T05:45:34;-1.60;99.90
8172;DHT22;4127;47.908;10.850;2023-01-16T05:48:28;-1.60;99.90
8172;DHT22;4127;47.908;10.850;2023-01-16T05:51:14;-1.60;99.90
8172;DHT22;4127;47.908;10.850;2023-01-16T05:53:53;-1.60;99.90
8172;DHT22;4127;47.908;10.850;2023-01-16T05:56:42;-1.60;99.90
8172;DHT22;4127;47.908;10.850;2023-01-16T05:59:19;-1.60;99.90
8172;DHT22;4127;47.908;10.850;2023-01-16T06:02:11;-2.00;99.90
8172;DHT22;4127;47.908;10.850;2023-01-16T06:05:33;-2.00;99.90
8172;DHT22;4127;47.908;10.850;2023-01-16T06:08:12;-2.00;99.90
8172;DHT22;4127;47.908;10.850;2023-01-16T06:11:05;-1.80;99.90
8172;DHT22;4127;47.908;10.850;2023-01-16T06:13:38;-1.80;99.90
8172;DHT22;4127;47.908;10.850;2023-01-16T06:16:13;-1.70;99.90
8172;DHT22;4127;47.908;10.850;2023-01-16T06:18:44;-1.60;99.90
8172;DHT22;4127;47.908;10.850;2023-01-16T06:21:25;-1.60;99.90
8172;DHT22;4127;47.908;10.850;2023-01-16T06:24:23;-1.60;99.90
8172;DHT22;4127;47.908;10.850;2023-01-16T06:27:07;-1.50;99.90
8172;DHT22;4127;47.908;10.850;2023-01-16T06:29:40;-1.50;99.90
8172;DHT22;4127;47.908;10.850;2023-01-16T06:32:19;-1.50;99.90
8172;DHT22;4127;47.908;10.850;2023-01-16T06:35:00;-1.50;99.90
8172;DHT22;4127;47.908;10.850;2023-01-16T06:38:01;-1.50;99.90
8172;DHT22;4127;47.908;10.850;2023-01-16T06:40:59;-1.60;99.90
8172;DHT22;4127;47.908;10.850;2023-01-16T06:43:32;-1.50;99.90
8172;DHT22;4127;47.908;10.850;2023-01-16T06:46:11;-1.40;99.90
8172;DHT22;4127;47.908;10.850;2023-01-16T06:48:56;-1.20;99.90
8172;DHT22;4127;47.908;10.850;2023-01-16T06:51:26;-1.10;99.90
8172;DHT22;4127;47.908;10.850;2023-01-16T06:53:57;-0.90;99.90
8172;DHT22;4127;47.908;10.850;2023-01-16T06:56:25;-1.00;99.90
8172;DHT22;4127;47.908;10.850;2023-01-16T06:58:55;-1.00;99.90
8172;DHT22;4127;47.908;10.850;2023-01-16T07:01:22;-1.00;99.90
8172;DHT22;4127;47.908;10.850;2023-01-16T07:04:07;-1.00;99.90
8172;DHT22;4127;47.908;10.850;2023-01-16T07:06:42;-1.00;99.90
8172;DHT22;4127;47.908;10.850;2023-01-16T07:09:37;-1.00;99.90
8172;DHT22;4127;47.908;10.850;2023-01-16T07:12:16;-1.10;99.90
8172;DHT22;4127;47.908;10.850;2023-01-16T07:14:52;-1.10;99.90
8172;DHT22;4127;47.908;10.850;2023-01-16T07:17:37;-1.10;99.90
8172;DHT22;4127;47.908;10.850;2023-01-16T07:20:37;-0.90;99.90
8172;DHT22;4127;47.908;10.850;2023-01-16T07:23:58;-0.70;99.90
8172;DHT22;4127;47.908;10.850;2023-01-16T07:26:53;-0.80;99.90
8172;DHT22;4127;47.908;10.850;2023-01-16T07:29:32;-0.80;99.90
8172;DHT22;4127;47.908;10.850;2023-01-16T07:32:08;-0.80;99.90
8172;DHT22;4127;47.908;10.850;2023-01-16T07:35:00;-0.80;99.90
8172;DHT22;4127;47.908;10.850;2023-01-16T07:37:55;-0.80;99.90
8172;DHT22;4127;47.908;10.850;2023-01-16T07:40:33;-0.60;99.90
8172;DHT22;4127;47.908;10.850;2023-01-16T07:43:07;-0.50;99.90
8172;DHT22;4127;47.908;10.850;2023-01-16T07:45:34;-0.50;99.90
8172;DHT22;4127;47.908;10.850;2023-01-16T07:48:07;-0.40;99.90
8172;DHT22;4127;47.908;10.850;2023-01-16T07:50:49;-0.30;99.90
8172;DHT22;4127;47.908;10.850;2023-01-16T07:53:30;-0.20;99.90
8172;DHT22;4127;47.908;10.850;2023-01-16T07:56:01;-0.20;99.90
8172;DHT22;4127;47.908;10.850;2023-01-16T07:58:29;-0.10;99.90
8172;DHT22;4127;47.908;10.850;2023-01-16T08:00:57;0.00;99.90
8172;DHT22;4127;47.908;10.850;2023-01-16T08:03:24;0.10;99.90
8172;DHT22;4127;47.908;10.850;2023-01-16T08:05:56;0.10;99.90
8172;DHT22;4127;47.908;10.850;2023-01-16T08:08:26;0.20;99.90
8172;DHT22;4127;47.908;10.850;2023-01-16T08:10:54;0.30;99.90
8172;DHT22;4127;47.908;10.850;2023-01-16T08:13:22;0.50;99.90
8172;DHT22;4127;47.908;10.850;2023-01-16T08:15:49;0.40;99.90
8172;DHT22;4127;47.908;10.850;2023-01-16T08:18:17;0.50;99.90
8172;DHT22;4127;47.908;10.850;2023-01-16T08:20:45;0.60;99.90
8172;DHT22;4127;47.908;10.850;2023-01-16T08:23:12;0.70;99.90
8172;DHT22;4127;47.908;10.850;2023-01-16T08:25:39;0.80;99.90
8172;DHT22;4127;47.908;10.850;2023-01-16T08:28:06;0.90;99.90
8172;DHT22;4127;47.908;10.850;2023-01-16T08:30:32;1.00;99.90
8172;DHT22;4127;47.908;10.850;2023-01-16T08:33:00;1.20;99.90
8172;DHT22;4127;47.908;10.850;2023-01-16T08:35:28;1.30;99.90
8172;DHT22;4127;47.908;10.850;2023-01-16T08:37:55;1.40;99.90
8172;DHT22;4127;47.908;10.850;2023-01-16T08:40:21;1.50;99.90
8172;DHT22;4127;47.908;10.850;2023-01-16T08:42:48;1.60;99.90
8172;DHT22;4127;47.908;10.850;2023-01-16T08:45:37;1.70;99.90
8172;DHT22;4127;47.908;10.850;2023-01-16T08:48:26;1.70;99.90
8172;DHT22;4127;47.908;10.850;2023-01-16T08:51:15;1.70;99.90
8172;DHT22;4127;47.908;10.850;2023-01-16T08:53:54;1.70;99.90
8172;DHT22;4127;47.908;10.850;2023-01-16T08:56:21;1.70;99.90
8172;DHT22;4127;47.908;10.850;2023-01-16T08:58:49;1.70;99.90
8172;DHT22;4127;47.908;10.850;2023-01-16T09:01:16;1.70;99.90
8172;DHT22;4127;47.908;10.850;2023-01-16T09:03:44;1.70;99.90
8172;DHT22;4127;47.908;10.850;2023-01-16T09:06:10;1.70;99.90
8172;DHT22;4127;47.908;10.850;2023-01-16T09:08:37;1.70;99.90
8172;DHT22;4127;47.908;10.850;2023-01-16T09:11:04;1.70;99.90
8172;DHT22;4127;47.908;10.850;2023-01-16T09:13:49;1.70;99.90
8172;DHT22;4127;47.908;10.850;2023-01-16T09:16:21;1.70;99.90
8172;DHT22;4127;47.908;10.850;2023-01-16T09:18:49;1.60;99.90
8172;DHT22;4127;47.908;10.850;2023-01-16T09:21:16;1.60;99.90
8172;DHT22;4127;47.908;10.850;2023-01-16T09:23:46;1.60;99.90
8172;DHT22;4127;47.908;10.850;2023-01-16T09:26:12;1.50;99.90
8172;DHT22;4127;47.908;10.850;2023-01-16T09:28:39;1.60;99.90
8172;DHT22;4127;47.908;10.850;2023-01-16T09:31:06;1.50;99.90
8172;DHT22;4127;47.908;10.850;2023-01-16T09:33:33;1.50;99.90
8172;DHT22;4127;47.908;10.850;2023-01-16T09:36:00;1.60;99.90
8172;DHT22;4127;47.908;10.850;2023-01-16T09:38:26;1.70;99.90
8172;DHT22;4127;47.908;10.850;2023-01-16T09:40:58;1.80;99.90
8172;DHT22;4127;47.908;10.850;2023-01-16T09:43:37;1.90;99.90
8172;DHT22;4127;47.908;10.850;2023-01-16T09:46:22;1.90;99.90
8172;DHT22;4127;47.908;10.850;2023-01-16T09:49:00;1.90;99.90
8172;DHT22;4127;47.908;10.850;2023-01-16T09:52:06;1.90;99.90
8172;DHT22;4127;47.908;10.850;2023-01-16T09:54:57;2.00;99.90
8172;DHT22;4127;47.908;10.850;2023-01-16T09:57:45;2.10;99.90
8172;DHT22;4127;47.908;10.850;2023-01-16T10:00:33;2.10;99.90
8172;DHT22;4127;47.908;10.850;2023-01-16T10:03:01;2.20;99.90
8172;DHT22;4127;47.908;10.850;2023-01-16T10:05:34;2.20;99.90
8172;DHT22;4127;47.908;10.850;2023-01-16T10:09:17;2.20;99.90
8172;DHT22;4127;47.908;10.850;2023-01-16T10:23:02;2.40;99.90
8172;DHT22;4127;47.908;10.850;2023-01-16T10:31:05;2.60;99.90
8172;DHT22;4127;47.908;10.850;2023-01-16T10:33:43;2.60;99.90
8172;DHT22;4127;47.908;10.850;2023-01-16T10:36:20;2.70;99.90
8172;DHT22;4127;47.908;10.850;2023-01-16T10:38:50;2.90;99.90
8172;DHT22;4127;47.908;10.850;2023-01-16T10:41:45;3.00;99.90
8172;DHT22;4127;47.908;10.850;2023-01-16T10:44:37;3.20;99.90
8172;DHT22;4127;47.908;10.850;2023-01-16T10:47:32;3.40;99.90
8172;DHT22;4127;47.908;10.850;2023-01-16T10:50:20;3.50;99.90
8172;DHT22;4127;47.908;10.850;2023-01-16T10:53:07;3.80;99.90
8172;DHT22;4127;47.908;10.850;2023-01-16T10:55:35;4.00;99.90
8172;DHT22;4127;47.908;10.850;2023-01-16T10:58:08;4.10;99.90
8172;DHT22;4127;47.908;10.850;2023-01-16T11:00:41;4.20;99.80
8172;DHT22;4127;47.908;10.850;2023-01-16T11:06:29;4.10;99.90
8172;DHT22;4127;47.908;10.850;2023-01-16T11:09:16;4.10;99.90
8172;DHT22;4127;47.908;10.850;2023-01-16T11:11:54;4.20;99.50
8172;DHT22;4127;47.908;10.850;2023-01-16T11:14:41;4.30;99.60
8172;DHT22;4127;47.908;10.850;2023-01-16T11:17:29;4.40;98.80
8172;DHT22;4127;47.908;10.850;2023-01-16T11:20:31;4.30;99.00
8172;DHT22;4127;47.908;10.850;2023-01-16T11:23:21;4.40;99.40
8172;DHT22;4127;47.908;10.850;2023-01-16T11:25:50;4.60;99.90
8172;DHT22;4127;47.908;10.850;2023-01-16T11:28:27;4.70;99.60
8172;DHT22;4127;47.908;10.850;2023-01-16T11:31:03;4.90;99.50
8172;DHT22;4127;47.908;10.850;2023-01-16T11:33:44;4.90;99.00
8172;DHT22;4127;47.908;10.850;2023-01-16T11:36:18;4.90;98.20
8172;DHT22;4127;47.908;10.850;2023-01-16T11:38:46;4.80;97.90
8172;DHT22;4127;47.908;10.850;2023-01-16T11:41:18;4.80;97.40
8172;DHT22;4127;47.908;10.850;2023-01-16T11:44:34;4.80;97.50
8172;DHT22;4127;47.908;10.850;2023-01-16T11:46:57;4.80;97.80
8172;DHT22;4127;47.908;10.850;2023-01-16T11:49:28;4.90;97.50
8172;DHT22;4127;47.908;10.850;2023-01-16T11:51:58;4.80;97.70
8172;DHT22;4127;47.908;10.850;2023-01-16T11:54:32;4.90;97.30
8172;DHT22;4127;47.908;10.850;2023-01-16T12:08:32;4.70;97.10
8172;DHT22;4127;47.908;10.850;2023-01-16T12:17:11;4.30;97.30
8172;DHT22;4127;47.908;10.850;2023-01-16T12:20:07;4.30;96.90
8172;DHT22;4127;47.908;10.850;2023-01-16T12:42:20;4.40;95.90
8172;DHT22;4127;47.908;10.850;2023-01-16T12:48:07;4.40;95.10
8172;DHT22;4127;47.908;10.850;2023-01-16T12:56:53;4.40;92.60
8172;DHT22;4127;47.908;10.850;2023-01-16T12:59:34;4.30;93.00
8172;DHT22;4127;47.908;10.850;2023-01-16T13:02:35;4.30;91.80
8172;DHT22;4127;47.908;10.850;2023-01-16T13:05:18;4.20;91.40
8172;DHT22;4127;47.908;10.850;2023-01-16T13:07:56;4.20;92.20
8172;DHT22;4127;47.908;10.850;2023-01-16T13:10:33;4.20;92.50
8172;DHT22;4127;47.908;10.850;2023-01-16T13:13:33;4.10;92.60
8172;DHT22;4127;47.908;10.850;2023-01-16T13:16:19;4.00;92.60
8172;DHT22;4127;47.908;10.850;2023-01-16T13:19:23;4.10;93.00
8172;DHT22;4127;47.908;10.850;2023-01-16T13:24:33;4.00;92.50
8172;DHT22;4127;47.908;10.850;2023-01-16T13:27:03;3.90;92.50
8172;DHT22;4127;47.908;10.850;2023-01-16T13:29:37;3.90;92.60
8172;DHT22;4127;47.908;10.850;2023-01-16T13:32:26;3.90;92.10
8172;DHT22;4127;47.908;10.850;2023-01-16T13:35:01;3.90;91.60
8172;DHT22;4127;47.908;10.850;2023-01-16T13:40:42;3.90;92.00
8172;DHT22;4127;47.908;10.850;2023-01-16T13:43:28;3.90;92.90
8172;DHT22;4127;47.908;10.850;2023-01-16T13:46:15;3.90;92.90
8172;DHT22;4127;47.908;10.850;2023-01-16T13:48:49;4.00;92.50
8172;DHT22;4127;47.908;10.850;2023-01-16T13:51:18;4.10;92.50
8172;DHT22;4127;47.908;10.850;2023-01-16T13:53:50;4.10;92.50
8172;DHT22;4127;47.908;10.850;2023-01-16T13:56:20;4.10;92.40
8172;DHT22;4127;47.908;10.850;2023-01-16T13:58:53;4.00;92.80
8172;DHT22;4127;47.908;10.850;2023-01-16T14:06:46;4.00;92.40
8172;DHT22;4127;47.908;10.850;2023-01-16T14:20:42;3.90;95.80
8172;DHT22;4127;47.908;10.850;2023-01-16T14:26:13;3.80;94.30
8172;DHT22;4127;47.908;10.850;2023-01-16T14:28:46;3.80;94.20
8172;DHT22;4127;47.908;10.850;2023-01-16T14:31:26;3.70;94.60
8172;DHT22;4127;47.908;10.850;2023-01-16T14:33:55;3.60;95.20
8172;DHT22;4127;47.908;10.850;2023-01-16T14:36:25;3.50;96.70
8172;DHT22;4127;47.908;10.850;2023-01-16T14:38:53;3.60;97.00
8172;DHT22;4127;47.908;10.850;2023-01-16T14:41:29;3.60;97.60
8172;DHT22;4127;47.908;10.850;2023-01-16T14:44:18;3.50;97.70
8172;DHT22;4127;47.908;10.850;2023-01-16T14:50:06;3.60;95.60
8172;DHT22;4127;47.908;10.850;2023-01-16T14:53:17;3.60;95.60
8172;DHT22;4127;47.908;10.850;2023-01-16T14:56:32;3.70;96.10
8172;DHT22;4127;47.908;10.850;2023-01-16T14:59:20;3.70;95.10
8172;DHT22;4127;47.908;10.850;2023-01-16T15:02:37;3.60;95.40
8172;DHT22;4127;47.908;10.850;2023-01-16T15:05:14;3.70;95.70
8172;DHT22;4127;47.908;10.850;2023-01-16T15:07:57;3.60;95.30
8172;DHT22;4127;47.908;10.850;2023-01-16T15:10:39;3.70;96.00
8172;DHT22;4127;47.908;10.850;2023-01-16T15:13:23;3.70;96.60
8172;DHT22;4127;47.908;10.850;2023-01-16T15:16:00;3.70;97.70
8172;DHT22;4127;47.908;10.850;2023-01-16T15:18:28;3.70;97.90
8172;DHT22;4127;47.908;10.850;2023-01-16T15:21:19;3.60;98.70
8172;DHT22;4127;47.908;10.850;2023-01-16T15:24:06;3.50;99.30
8172;DHT22;4127;47.908;10.850;2023-01-16T15:27:02;3.50;98.70
8172;DHT22;4127;47.908;10.850;2023-01-16T15:29:50;3.50;98.90
8172;DHT22;4127;47.908;10.850;2023-01-16T15:32:18;3.40;97.90
8172;DHT22;4127;47.908;10.850;2023-01-16T15:35:02;3.40;98.70
8172;DHT22;4127;47.908;10.850;2023-01-16T15:37:30;3.30;99.20
8172;DHT22;4127;47.908;10.850;2023-01-16T15:39:59;3.00;99.90
8172;DHT22;4127;47.908;10.850;2023-01-16T15:42:29;2.80;99.90
8172;DHT22;4127;47.908;10.850;2023-01-16T15:45:21;2.50;99.90
8172;DHT22;4127;47.908;10.850;2023-01-16T15:48:27;2.40;99.90
8172;DHT22;4127;47.908;10.850;2023-01-16T15:51:00;2.10;99.90
8172;DHT22;4127;47.908;10.850;2023-01-16T15:53:35;2.00;99.90
8172;DHT22;4127;47.908;10.850;2023-01-16T15:56:18;2.00;99.90
8172;DHT22;4127;47.908;10.850;2023-01-16T15:58:46;2.10;99.90
8172;DHT22;4127;47.908;10.850;2023-01-16T16:01:33;2.10;99.90
8172;DHT22;4127;47.908;10.850;2023-01-16T16:04:02;2.10;99.90
8172;DHT22;4127;47.908;10.850;2023-01-16T16:06:30;2.20;99.90
8172;DHT22;4127;47.908;10.850;2023-01-16T16:08:59;2.10;99.90
8172;DHT22;4127;47.908;10.850;2023-01-16T16:11:28;2.00;99.90
8172;DHT22;4127;47.908;10.850;2023-01-16T16:14:31;2.10;99.90
8172;DHT22;4127;47.908;10.850;2023-01-16T16:17:20;1.90;99.90
8172;DHT22;4127;47.908;10.850;2023-01-16T16:22:52;1.70;99.90
8172;DHT22;4127;47.908;10.850;2023-01-16T16:25:28;1.80;99.90
8172;DHT22;4127;47.908;10.850;2023-01-16T16:27:57;1.70;99.90
8172;DHT22;4127;47.908;10.850;2023-01-16T16:30:26;1.70;99.90
8172;DHT22;4127;47.908;10.850;2023-01-16T16:32:54;1.60;99.90
8172;DHT22;4127;47.908;10.850;2023-01-16T16:35:32;1.60;99.90
8172;DHT22;4127;47.908;10.850;2023-01-16T16:38:00;1.50;99.90
8172;DHT22;4127;47.908;10.850;2023-01-16T16:40:28;1.50;99.90
8172;DHT22;4127;47.908;10.850;2023-01-16T16:42:57;1.40;99.90
8172;DHT22;4127;47.908;10.850;2023-01-16T16:45:30;1.30;99.90
8172;DHT22;4127;47.908;10.850;2023-01-16T16:48:23;1.30;99.90
8172;DHT22;4127;47.908;10.850;2023-01-16T16:51:10;1.30;99.90
8172;DHT22;4127;47.908;10.850;2023-01-16T16:53:44;1.30;99.90
8172;DHT22;4127;47.908;10.850;2023-01-16T16:56:13;1.20;99.90
8172;DHT22;4127;47.908;10.850;2023-01-16T16:58:46;1.20;99.90
8172;DHT22;4127;47.908;10.850;2023-01-16T17:01:29;1.20;99.90
8172;DHT22;4127;47.908;10.850;2023-01-16T17:03:58;1.20;99.90
8172;DHT22;4127;47.908;10.850;2023-01-16T17:06:30;1.20;99.90
8172;DHT22;4127;47.908;10.850;2023-01-16T17:08:58;1.20;99.90
8172;DHT22;4127;47.908;10.850;2023-01-16T17:11:26;1.30;99.90
8172;DHT22;4127;47.908;10.850;2023-01-16T17:13:53;1.40;99.90
8172;DHT22;4127;47.908;10.850;2023-01-16T17:16:26;1.50;99.90
8172;DHT22;4127;47.908;10.850;2023-01-16T17:19:03;1.50;99.90
8172;DHT22;4127;47.908;10.850;2023-01-16T17:21:30;1.60;99.90
8172;DHT22;4127;47.908;10.850;2023-01-16T17:23:57;1.60;99.90
8172;DHT22;4127;47.908;10.850;2023-01-16T17:26:24;1.50;99.90
8172;DHT22;4127;47.908;10.850;2023-01-16T17:28:50;1.40;99.90
8172;DHT22;4127;47.908;10.850;2023-01-16T17:31:19;1.30;99.90
8172;DHT22;4127;47.908;10.850;2023-01-16T17:33:47;1.30;99.90
8172;DHT22;4127;47.908;10.850;2023-01-16T17:36:21;1.30;99.90
8172;DHT22;4127;47.908;10.850;2023-01-16T17:38:48;1.40;99.90
8172;DHT22;4127;47.908;10.850;2023-01-16T17:41:18;1.50;99.90
8172;DHT22;4127;47.908;10.850;2023-01-16T17:43:50;1.60;99.90
8172;DHT22;4127;47.908;10.850;2023-01-16T17:46:35;1.60;99.90
8172;DHT22;4127;47.908;10.850;2023-01-16T17:49:02;1.90;99.20
8172;DHT22;4127;47.908;10.850;2023-01-16T17:51:29;2.00;98.80
8172;DHT22;4127;47.908;10.850;2023-01-16T17:53:58;2.40;97.50
8172;DHT22;4127;47.908;10.850;2023-01-16T17:56:26;2.60;97.00
8172;DHT22;4127;47.908;10.850;2023-01-16T17:58:53;2.80;96.60
8172;DHT22;4127;47.908;10.850;2023-01-16T18:01:27;2.80;96.90
8172;DHT22;4127;47.908;10.850;2023-01-16T18:03:59;3.10;96.60
8172;DHT22;4127;47.908;10.850;2023-01-16T18:06:37;3.20;96.80
8172;DHT22;4127;47.908;10.850;2023-01-16T18:09:05;3.30;97.00
8172;DHT22;4127;47.908;10.850;2023-01-16T18:11:38;3.40;97.20
8172;DHT22;4127;47.908;10.850;2023-01-16T18:14:23;3.30;98.00
8172;DHT22;4127;47.908;10.850;2023-01-16T18:17:13;3.20;98.90
8172;DHT22;4127;47.908;10.850;2023-01-16T18:19:57;3.20;98.80
8172;DHT22;4127;47.908;10.850;2023-01-16T18:22:29;3.20;98.70
8172;DHT22;4127;47.908;10.850;2023-01-16T18:24:57;3.20;99.00
8172;DHT22;4127;47.908;10.850;2023-01-16T18:27:24;3.30;98.80
8172;DHT22;4127;47.908;10.850;2023-01-16T18:29:51;3.40;98.90
8172;DHT22;4127;47.908;10.850;2023-01-16T18:32:18;3.30;98.80
8172;DHT22;4127;47.908;10.850;2023-01-16T18:40:00;3.40;99.20
8172;DHT22;4127;47.908;10.850;2023-01-16T18:42:45;3.40;99.30
8172;DHT22;4127;47.908;10.850;2023-01-16T18:45:32;3.40;99.90
8172;DHT22;4127;47.908;10.850;2023-01-16T18:48:18;3.40;99.90
8172;DHT22;4127;47.908;10.850;2023-01-16T18:51:10;3.40;99.90
8172;DHT22;4127;47.908;10.850;2023-01-16T18:53:56;3.40;99.90
8172;DHT22;4127;47.908;10.850;2023-01-16T18:56:43;3.40;99.90
8172;DHT22;4127;47.908;10.850;2023-01-16T18:59:30;3.30;99.90
8172;DHT22;4127;47.908;10.850;2023-01-16T19:02:41;3.10;99.90
8172;DHT22;4127;47.908;10.850;2023-01-16T19:05:09;3.10;99.90
8172;DHT22;4127;47.908;10.850;2023-01-16T19:07:37;2.90;99.90
8172;DHT22;4127;47.908;10.850;2023-01-16T19:10:14;2.70;99.90
8172;DHT22;4127;47.908;10.850;2023-01-16T19:12:43;2.40;99.90
8172;DHT22;4127;47.908;10.850;2023-01-16T19:15:11;2.10;99.90
8172;DHT22;4127;47.908;10.850;2023-01-16T19:17:39;2.00;99.90
8172;DHT22;4127;47.908;10.850;2023-01-16T19:20:06;1.90;99.90
8172;DHT22;4127;47.908;10.850;2023-01-16T19:22:33;1.80;99.90
8172;DHT22;4127;47.908;10.850;2023-01-16T19:25:00;1.70;99.90
8172;DHT22;4127;47.908;10.850;2023-01-16T19:27:26;1.60;99.90
8172;DHT22;4127;47.908;10.850;2023-01-16T19:29:53;1.60;99.90
8172;DHT22;4127;47.908;10.850;2023-01-16T19:32:20;1.60;99.90
8172;DHT22;4127;47.908;10.850;2023-01-16T19:34:47;1.60;99.90